Wednesday, May 23, 2018, 9:05 AM EDT
Back to Local

KWVL, Waterville, Waterville Robert Lafleur Airport

Location: Waterville, ME, United States Lat: 44.533
Local Time: 9:05 AM EDT (13:05 GMT) Lon: -69.683
Time Zone: US/Eastern Elev: 334 ft

Show me the last for .
Show Decoded

2018-05-23 07:56 METAR KWVL 231156Z AUTO 00000KT 10SM CLR 16/12 A2982 RMK AO2 SLP125 60000
                 T01560117 10161 20106 50003 $ =
2018-05-23 06:56 METAR KWVL 231056Z AUTO 00000KT 10SM CLR 13/11 A2983 RMK AO2 SLP127 T01280106 $
                 =
2018-05-23 05:56 METAR KWVL 230956Z AUTO 00000KT 10SM CLR 11/10 A2982 RMK AO2 SLP123 T01060100 $
                 =
2018-05-23 04:56 METAR KWVL 230856Z AUTO 00000KT 10SM FEW012 11/10 A2981 RMK AO2 RAE11 SLP122
                 P0000 60000 T01110100 56010 $ =
2018-05-23 03:56 METAR KWVL 230756Z AUTO VRB03KT 10SM -RA CLR 12/10 A2982 RMK AO2 RAB01E15B50
                 SLP123 P0000 T01170100 $ =
2018-05-23 03:28 METAR KWVL 230728Z AUTO 00000KT 10SM SCT016 12/10 A2982 RMK AO2 RAB01E15 P0000 $
                 =
2018-05-23 02:56 METAR KWVL 230656Z AUTO 00000KT 10SM OVC018 12/10 A2983 RMK AO2 SLP127 T01220100
                 $ =
2018-05-23 02:16 METAR KWVL 230616Z AUTO 20003KT 10SM BKN024 BKN029 OVC046 12/10 A2984 RMK AO2 $
                 =
2018-05-23 00:56 METAR KWVL 230456Z AUTO VRB03KT 10SM OVC050 13/11 A2985 RMK AO2 RAB31E44 SLP135
                 P0000 T01280111 402280094 $ =
2018-05-22 23:56 METAR KWVL 230356Z AUTO 20005KT 10SM OVC055 13/11 A2987 RMK AO2 SLP142 T01280111
                 $ =
2018-05-22 22:56 METAR KWVL 230256Z AUTO 19003KT 10SM FEW050 OVC060 13/11 A2989 RMK AO2
                 RAE06B28E45 SLP149 P0000 60000 T01330111 58022 $ =
2018-05-22 21:56 METAR KWVL 230156Z AUTO 19004KT 10SM -RA CLR 14/12 A2993 RMK AO2 SLP162 P0000
                 T01390117 $ =
2018-05-22 20:56 METAR KWVL 230056Z AUTO 22006KT 10SM -RA FEW038 BKN048 OVC060 16/10 A2995 RMK
                 AO2 RAB47 SLP167 P0000 T01610100 $ =
2018-05-22 19:56 METAR KWVL 222356Z AUTO 21004KT 10SM BKN090 17/10 A2996 RMK AO2 RAB04E24 SLP171
                 P0000 60000 T01670100 10228 20167 58015 $ =
2018-05-22 18:56 METAR KWVL 222256Z AUTO 22007KT 10SM FEW070 SCT120 18/10 A2998 RMK AO2 SLP179
                 T01780100 $ =
2018-05-22 17:56 METAR KWVL 222156Z AUTO 23012G17KT 10SM FEW095 19/09 A3000 RMK AO2 SLP184
                 T01890089 $ =
2018-05-22 16:56 METAR KWVL 222056Z AUTO 22011KT 10SM CLR 21/08 A3000 RMK AO2 SLP187 T02110078
                 55023 $ =
2018-05-22 15:56 METAR KWVL 221956Z AUTO VRB04KT 10SM CLR 21/08 A2999 RMK AO2 SLP182 T02110078 =
2018-05-22 14:56 METAR KWVL 221856Z AUTO VRB04KT 10SM CLR 22/06 A3004 RMK AO2 SLP199 T02220061 =
2018-05-22 13:56 METAR KWVL 221756Z AUTO VRB05KT 10SM CLR 22/06 A3007 RMK AO2 SLP208 T02170056
                 10222 20117 57023 =
2018-05-22 12:56 METAR KWVL 221656Z AUTO VRB06KT 10SM CLR 21/04 A3008 RMK AO2 PRESFR SLP212
                 T02060039 =
2018-05-22 11:56 METAR KWVL 221556Z AUTO VRB05KT 10SM CLR 20/03 A3013 RMK AO2 SLP228 T02000033 $
                 =
2018-05-22 10:56 METAR KWVL 221456Z AUTO VRB04KT 10SM CLR 19/02 A3014 RMK AO2 SLP232 T01890022
                 58018 $ =
2018-05-22 09:56 METAR KWVL 221356Z AUTO 00000KT 10SM CLR 17/03 A3016 RMK AO2 SLP240 T01670033 $
                 =

Support USWX by starting your Amazon purchase here.